sensor_id;sensor_type;location;lat;lon;timestamp;P1;durP1;ratioP1;P2;durP2;ratioP2
25155;SDS011;21913;52.456;13.634;2022-12-26T00:01:58;3.08;;;2.00;;
25155;SDS011;21913;52.456;13.634;2022-12-26T00:07:00;3.10;;;2.13;;
25155;SDS011;21913;52.456;13.634;2022-12-26T00:12:01;4.30;;;2.10;;
25155;SDS011;21913;52.456;13.634;2022-12-26T00:17:04;3.15;;;2.15;;
25155;SDS011;21913;52.456;13.634;2022-12-26T00:22:06;3.03;;;2.10;;
25155;SDS011;21913;52.456;13.634;2022-12-26T00:27:08;3.13;;;2.22;;
25155;SDS011;21913;52.456;13.634;2022-12-26T00:32:09;3.25;;;2.10;;
25155;SDS011;21913;52.456;13.634;2022-12-26T00:37:11;3.10;;;2.20;;
25155;SDS011;21913;52.456;13.634;2022-12-26T00:42:12;2.72;;;1.75;;
25155;SDS011;21913;52.456;13.634;2022-12-26T00:47:14;3.05;;;2.20;;
25155;SDS011;21913;52.456;13.634;2022-12-26T00:52:15;4.13;;;2.28;;
25155;SDS011;21913;52.456;13.634;2022-12-26T00:57:17;3.72;;;2.30;;
25155;SDS011;21913;52.456;13.634;2022-12-26T01:02:19;3.25;;;2.28;;
25155;SDS011;21913;52.456;13.634;2022-12-26T01:07:20;2.97;;;1.92;;
25155;SDS011;21913;52.456;13.634;2022-12-26T01:12:22;2.67;;;1.90;;
25155;SDS011;21913;52.456;13.634;2022-12-26T01:17:24;2.22;;;1.60;;
25155;SDS011;21913;52.456;13.634;2022-12-26T01:22:26;2.55;;;2.00;;
25155;SDS011;21913;52.456;13.634;2022-12-26T01:27:28;2.65;;;2.00;;
25155;SDS011;21913;52.456;13.634;2022-12-26T01:32:30;2.65;;;1.75;;
25155;SDS011;21913;52.456;13.634;2022-12-26T01:37:31;3.50;;;2.17;;
25155;SDS011;21913;52.456;13.634;2022-12-26T01:42:37;3.28;;;2.10;;
25155;SDS011;21913;52.456;13.634;2022-12-26T01:47:45;3.47;;;2.10;;
25155;SDS011;21913;52.456;13.634;2022-12-26T01:52:52;2.70;;;2.05;;
25155;SDS011;21913;52.456;13.634;2022-12-26T01:58:00;3.03;;;2.00;;
25155;SDS011;21913;52.456;13.634;2022-12-26T02:03:07;2.53;;;1.83;;
25155;SDS011;21913;52.456;13.634;2022-12-26T02:08:14;2.78;;;1.90;;
25155;SDS011;21913;52.456;13.634;2022-12-26T02:13:19;2.80;;;1.83;;
25155;SDS011;21913;52.456;13.634;2022-12-26T02:18:21;3.05;;;1.90;;
25155;SDS011;21913;52.456;13.634;2022-12-26T02:39:21;2.92;;;1.67;;
25155;SDS011;21913;52.456;13.634;2022-12-26T02:44:32;2.53;;;1.80;;
25155;SDS011;21913;52.456;13.634;2022-12-26T02:55:21;2.30;;;1.70;;
25155;SDS011;21913;52.456;13.634;2022-12-26T03:00:26;2.28;;;1.65;;
25155;SDS011;21913;52.456;13.634;2022-12-26T03:05:47;2.47;;;1.67;;
25155;SDS011;21913;52.456;13.634;2022-12-26T03:10:54;2.80;;;1.90;;
25155;SDS011;21913;52.456;13.634;2022-12-26T03:16:02;2.60;;;1.80;;
25155;SDS011;21913;52.456;13.634;2022-12-26T03:21:09;3.28;;;1.90;;
25155;SDS011;21913;52.456;13.634;2022-12-26T03:26:14;2.30;;;1.65;;
25155;SDS011;21913;52.456;13.634;2022-12-26T03:31:20;3.63;;;1.80;;
25155;SDS011;21913;52.456;13.634;2022-12-26T03:42:06;2.60;;;1.90;;
25155;SDS011;21913;52.456;13.634;2022-12-26T03:47:18;2.55;;;1.77;;
25155;SDS011;21913;52.456;13.634;2022-12-26T03:52:25;2.33;;;1.67;;
25155;SDS011;21913;52.456;13.634;2022-12-26T03:57:37;2.53;;;1.80;;
25155;SDS011;21913;52.456;13.634;2022-12-26T04:02:45;2.20;;;1.73;;
25155;SDS011;21913;52.456;13.634;2022-12-26T04:07:52;2.78;;;1.73;;
25155;SDS011;21913;52.456;13.634;2022-12-26T04:12:59;2.22;;;1.67;;
25155;SDS011;21913;52.456;13.634;2022-12-26T04:18:09;2.78;;;1.70;;
25155;SDS011;21913;52.456;13.634;2022-12-26T04:23:20;1.85;;;1.55;;
25155;SDS011;21913;52.456;13.634;2022-12-26T04:28:31;2.80;;;1.80;;
25155;SDS011;21913;52.456;13.634;2022-12-26T04:33:34;2.97;;;1.60;;
25155;SDS011;21913;52.456;13.634;2022-12-26T04:38:53;3.20;;;1.77;;
25155;SDS011;21913;52.456;13.634;2022-12-26T04:44:01;2.50;;;1.70;;
25155;SDS011;21913;52.456;13.634;2022-12-26T04:49:05;2.75;;;1.90;;
25155;SDS011;21913;52.456;13.634;2022-12-26T04:54:09;3.42;;;2.25;;
25155;SDS011;21913;52.456;13.634;2022-12-26T04:59:10;2.53;;;1.92;;
25155;SDS011;21913;52.456;13.634;2022-12-26T05:04:13;3.15;;;1.75;;
25155;SDS011;21913;52.456;13.634;2022-12-26T05:09:16;2.78;;;2.10;;
25155;SDS011;21913;52.456;13.634;2022-12-26T05:14:19;2.60;;;2.00;;
25155;SDS011;21913;52.456;13.634;2022-12-26T05:19:21;2.70;;;1.85;;
25155;SDS011;21913;52.456;13.634;2022-12-26T05:24:23;2.55;;;2.00;;
25155;SDS011;21913;52.456;13.634;2022-12-26T05:29:28;2.55;;;1.98;;
25155;SDS011;21913;52.456;13.634;2022-12-26T05:34:30;3.00;;;2.00;;
25155;SDS011;21913;52.456;13.634;2022-12-26T05:39:31;2.67;;;1.90;;
25155;SDS011;21913;52.456;13.634;2022-12-26T05:44:33;2.20;;;2.00;;
25155;SDS011;21913;52.456;13.634;2022-12-26T05:49:34;3.17;;;2.30;;
25155;SDS011;21913;52.456;13.634;2022-12-26T05:54:36;3.45;;;2.28;;
25155;SDS011;21913;52.456;13.634;2022-12-26T05:59:37;2.85;;;2.25;;
25155;SDS011;21913;52.456;13.634;2022-12-26T06:04:39;2.58;;;2.08;;
25155;SDS011;21913;52.456;13.634;2022-12-26T06:09:40;2.92;;;2.40;;
25155;SDS011;21913;52.456;13.634;2022-12-26T06:14:42;2.95;;;2.13;;
25155;SDS011;21913;52.456;13.634;2022-12-26T06:19:43;2.80;;;2.15;;
25155;SDS011;21913;52.456;13.634;2022-12-26T06:24:47;2.60;;;2.13;;
25155;SDS011;21913;52.456;13.634;2022-12-26T06:29:48;2.55;;;2.20;;
25155;SDS011;21913;52.456;13.634;2022-12-26T06:34:50;2.47;;;2.13;;
25155;SDS011;21913;52.456;13.634;2022-12-26T06:39:52;2.70;;;2.00;;
25155;SDS011;21913;52.456;13.634;2022-12-26T06:44:53;2.47;;;1.85;;
25155;SDS011;21913;52.456;13.634;2022-12-26T06:49:55;2.63;;;1.95;;
25155;SDS011;21913;52.456;13.634;2022-12-26T06:54:56;2.78;;;2.20;;
25155;SDS011;21913;52.456;13.634;2022-12-26T06:59:58;2.28;;;1.80;;
25155;SDS011;21913;52.456;13.634;2022-12-26T07:04:59;2.55;;;1.70;;
25155;SDS011;21913;52.456;13.634;2022-12-26T07:10:01;3.72;;;2.28;;
25155;SDS011;21913;52.456;13.634;2022-12-26T07:15:03;2.53;;;1.80;;
25155;SDS011;21913;52.456;13.634;2022-12-26T07:20:06;2.63;;;1.90;;
25155;SDS011;21913;52.456;13.634;2022-12-26T07:25:08;2.40;;;1.80;;
25155;SDS011;21913;52.456;13.634;2022-12-26T07:30:11;3.28;;;1.80;;
25155;SDS011;21913;52.456;13.634;2022-12-26T07:35:13;2.25;;;1.60;;
25155;SDS011;21913;52.456;13.634;2022-12-26T07:40:14;2.45;;;1.80;;
25155;SDS011;21913;52.456;13.634;2022-12-26T07:45:16;2.47;;;1.50;;
25155;SDS011;21913;52.456;13.634;2022-12-26T07:50:18;2.45;;;1.73;;
25155;SDS011;21913;52.456;13.634;2022-12-26T07:55:20;2.65;;;1.80;;
25155;SDS011;21913;52.456;13.634;2022-12-26T08:00:22;2.88;;;1.83;;
25155;SDS011;21913;52.456;13.634;2022-12-26T08:05:23;2.15;;;1.70;;
25155;SDS011;21913;52.456;13.634;2022-12-26T08:10:25;1.98;;;1.60;;
25155;SDS011;21913;52.456;13.634;2022-12-26T08:15:27;1.90;;;1.60;;
25155;SDS011;21913;52.456;13.634;2022-12-26T08:20:28;2.42;;;1.65;;
25155;SDS011;21913;52.456;13.634;2022-12-26T08:25:30;2.17;;;1.60;;
25155;SDS011;21913;52.456;13.634;2022-12-26T08:30:31;2.42;;;1.70;;
25155;SDS011;21913;52.456;13.634;2022-12-26T08:35:34;2.00;;;1.60;;
25155;SDS011;21913;52.456;13.634;2022-12-26T08:40:37;1.90;;;1.45;;
25155;SDS011;21913;52.456;13.634;2022-12-26T08:45:43;2.13;;;1.63;;
25155;SDS011;21913;52.456;13.634;2022-12-26T08:50:44;2.28;;;1.73;;
25155;SDS011;21913;52.456;13.634;2022-12-26T08:55:46;1.90;;;1.58;;
25155;SDS011;21913;52.456;13.634;2022-12-26T09:00:48;2.28;;;1.35;;
25155;SDS011;21913;52.456;13.634;2022-12-26T09:05:53;2.13;;;1.50;;
25155;SDS011;21913;52.456;13.634;2022-12-26T09:11:03;1.77;;;1.52;;
25155;SDS011;21913;52.456;13.634;2022-12-26T09:16:10;2.45;;;1.58;;
25155;SDS011;21913;52.456;13.634;2022-12-26T09:21:15;2.10;;;1.48;;
25155;SDS011;21913;52.456;13.634;2022-12-26T09:26:18;2.25;;;1.70;;
25155;SDS011;21913;52.456;13.634;2022-12-26T09:31:21;2.00;;;1.40;;
25155;SDS011;21913;52.456;13.634;2022-12-26T09:36:27;1.70;;;1.42;;
25155;SDS011;21913;52.456;13.634;2022-12-26T09:47:21;2.15;;;1.60;;
25155;SDS011;21913;52.456;13.634;2022-12-26T09:57:56;2.05;;;1.60;;
25155;SDS011;21913;52.456;13.634;2022-12-26T10:03:01;2.40;;;1.50;;
25155;SDS011;21913;52.456;13.634;2022-12-26T10:08:12;2.22;;;1.45;;
25155;SDS011;21913;52.456;13.634;2022-12-26T10:13:28;1.80;;;1.40;;
25155;SDS011;21913;52.456;13.634;2022-12-26T10:19:02;1.90;;;1.40;;
25155;SDS011;21913;52.456;13.634;2022-12-26T10:24:21;2.40;;;1.50;;
25155;SDS011;21913;52.456;13.634;2022-12-26T10:29:31;1.80;;;1.27;;
25155;SDS011;21913;52.456;13.634;2022-12-26T10:34:43;1.80;;;1.30;;
25155;SDS011;21913;52.456;13.634;2022-12-26T10:39:49;1.58;;;1.13;;
25155;SDS011;21913;52.456;13.634;2022-12-26T10:44:56;2.10;;;1.50;;
25155;SDS011;21913;52.456;13.634;2022-12-26T10:49:59;1.63;;;1.27;;
25155;SDS011;21913;52.456;13.634;2022-12-26T10:55:01;2.40;;;1.30;;
25155;SDS011;21913;52.456;13.634;2022-12-26T11:00:06;1.85;;;1.30;;
25155;SDS011;21913;52.456;13.634;2022-12-26T11:05:21;1.80;;;1.35;;
25155;SDS011;21913;52.456;13.634;2022-12-26T11:10:33;1.50;;;1.20;;
25155;SDS011;21913;52.456;13.634;2022-12-26T11:15:45;1.83;;;1.30;;
25155;SDS011;21913;52.456;13.634;2022-12-26T11:20:50;2.10;;;1.25;;
25155;SDS011;21913;52.456;13.634;2022-12-26T11:25:53;2.28;;;1.30;;
25155;SDS011;21913;52.456;13.634;2022-12-26T11:30:57;1.17;;;1.02;;
25155;SDS011;21913;52.456;13.634;2022-12-26T11:36:08;1.30;;;1.00;;
25155;SDS011;21913;52.456;13.634;2022-12-26T11:51:52;1.70;;;1.10;;
25155;SDS011;21913;52.456;13.634;2022-12-26T11:57:10;1.98;;;0.95;;
25155;SDS011;21913;52.456;13.634;2022-12-26T12:12:51;1.85;;;1.08;;
25155;SDS011;21913;52.456;13.634;2022-12-26T12:23:24;1.60;;;1.20;;
25155;SDS011;21913;52.456;13.634;2022-12-26T12:29:00;2.35;;;1.10;;
25155;SDS011;21913;52.456;13.634;2022-12-26T12:34:43;1.83;;;1.02;;
25155;SDS011;21913;52.456;13.634;2022-12-26T12:45:32;2.50;;;1.30;;
25155;SDS011;21913;52.456;13.634;2022-12-26T13:01:38;2.10;;;1.10;;
25155;SDS011;21913;52.456;13.634;2022-12-26T13:06:48;1.80;;;1.17;;
25155;SDS011;21913;52.456;13.634;2022-12-26T13:11:59;2.63;;;1.30;;
25155;SDS011;21913;52.456;13.634;2022-12-26T13:17:06;1.58;;;1.15;;
25155;SDS011;21913;52.456;13.634;2022-12-26T13:22:12;3.28;;;1.13;;
25155;SDS011;21913;52.456;13.634;2022-12-26T13:27:29;1.88;;;1.10;;
25155;SDS011;21913;52.456;13.634;2022-12-26T13:32:32;1.65;;;1.15;;
25155;SDS011;21913;52.456;13.634;2022-12-26T13:42:39;1.60;;;1.20;;
25155;SDS011;21913;52.456;13.634;2022-12-26T14:03:49;2.00;;;1.10;;
25155;SDS011;21913;52.456;13.634;2022-12-26T14:09:15;2.95;;;1.20;;
25155;SDS011;21913;52.456;13.634;2022-12-26T14:35:45;1.88;;;1.13;;
25155;SDS011;21913;52.456;13.634;2022-12-26T14:41:01;1.23;;;0.82;;
25155;SDS011;21913;52.456;13.634;2022-12-26T14:51:32;1.92;;;0.90;;
25155;SDS011;21913;52.456;13.634;2022-12-26T14:56:37;1.60;;;0.90;;
25155;SDS011;21913;52.456;13.634;2022-12-26T15:28:27;2.03;;;1.15;;
25155;SDS011;21913;52.456;13.634;2022-12-26T15:33:43;1.48;;;1.00;;
25155;SDS011;21913;52.456;13.634;2022-12-26T16:15:24;1.70;;;1.00;;
25155;SDS011;21913;52.456;13.634;2022-12-26T16:20:30;1.63;;;1.05;;
25155;SDS011;21913;52.456;13.634;2022-12-26T16:25:35;1.93;;;0.93;;
25155;SDS011;21913;52.456;13.634;2022-12-26T16:30:38;1.77;;;0.98;;
25155;SDS011;21913;52.456;13.634;2022-12-26T16:35:39;2.22;;;1.20;;
25155;SDS011;21913;52.456;13.634;2022-12-26T16:40:43;2.08;;;1.00;;
25155;SDS011;21913;52.456;13.634;2022-12-26T16:45:51;1.45;;;0.93;;
25155;SDS011;21913;52.456;13.634;2022-12-26T16:50:56;2.17;;;1.00;;
25155;SDS011;21913;52.456;13.634;2022-12-26T17:01:17;2.42;;;1.08;;
25155;SDS011;21913;52.456;13.634;2022-12-26T17:06:32;2.15;;;1.00;;
25155;SDS011;21913;52.456;13.634;2022-12-26T17:11:36;2.85;;;0.85;;
25155;SDS011;21913;52.456;13.634;2022-12-26T17:16:45;2.20;;;1.08;;
25155;SDS011;21913;52.456;13.634;2022-12-26T17:27:28;3.50;;;0.95;;
25155;SDS011;21913;52.456;13.634;2022-12-26T17:32:32;2.47;;;0.90;;
25155;SDS011;21913;52.456;13.634;2022-12-26T17:37:40;1.98;;;1.05;;
25155;SDS011;21913;52.456;13.634;2022-12-26T17:47:44;2.40;;;0.90;;
25155;SDS011;21913;52.456;13.634;2022-12-26T17:52:46;2.00;;;0.88;;
25155;SDS011;21913;52.456;13.634;2022-12-26T17:57:48;2.28;;;1.17;;
25155;SDS011;21913;52.456;13.634;2022-12-26T18:02:49;2.42;;;1.10;;
25155;SDS011;21913;52.456;13.634;2022-12-26T18:07:51;2.38;;;0.80;;
25155;SDS011;21913;52.456;13.634;2022-12-26T18:12:53;3.92;;;1.00;;
25155;SDS011;21913;52.456;13.634;2022-12-26T18:18:01;2.35;;;1.00;;
25155;SDS011;21913;52.456;13.634;2022-12-26T18:23:04;2.17;;;1.02;;
25155;SDS011;21913;52.456;13.634;2022-12-26T18:28:13;2.22;;;1.17;;
25155;SDS011;21913;52.456;13.634;2022-12-26T18:33:16;2.40;;;1.10;;
25155;SDS011;21913;52.456;13.634;2022-12-26T18:38:18;2.78;;;0.93;;
25155;SDS011;21913;52.456;13.634;2022-12-26T18:43:21;1.73;;;0.98;;
25155;SDS011;21913;52.456;13.634;2022-12-26T18:48:23;2.70;;;1.02;;
25155;SDS011;21913;52.456;13.634;2022-12-26T18:53:24;2.92;;;1.00;;
25155;SDS011;21913;52.456;13.634;2022-12-26T18:58:26;1.92;;;1.00;;
25155;SDS011;21913;52.456;13.634;2022-12-26T19:03:27;1.77;;;0.88;;
25155;SDS011;21913;52.456;13.634;2022-12-26T19:08:29;2.75;;;0.88;;
25155;SDS011;21913;52.456;13.634;2022-12-26T19:13:31;2.85;;;1.20;;
25155;SDS011;21913;52.456;13.634;2022-12-26T19:18:32;2.65;;;1.15;;
25155;SDS011;21913;52.456;13.634;2022-12-26T19:23:34;1.80;;;0.90;;
25155;SDS011;21913;52.456;13.634;2022-12-26T19:28:36;2.25;;;1.10;;
25155;SDS011;21913;52.456;13.634;2022-12-26T19:33:37;2.95;;;1.10;;
25155;SDS011;21913;52.456;13.634;2022-12-26T19:38:39;2.47;;;0.88;;
25155;SDS011;21913;52.456;13.634;2022-12-26T19:43:41;4.15;;;0.95;;
25155;SDS011;21913;52.456;13.634;2022-12-26T19:48:42;2.40;;;1.10;;
25155;SDS011;21913;52.456;13.634;2022-12-26T19:53:44;1.63;;;0.90;;
25155;SDS011;21913;52.456;13.634;2022-12-26T19:58:47;2.78;;;1.00;;
25155;SDS011;21913;52.456;13.634;2022-12-26T20:03:55;2.95;;;1.13;;
25155;SDS011;21913;52.456;13.634;2022-12-26T20:08:59;1.75;;;0.85;;
25155;SDS011;21913;52.456;13.634;2022-12-26T20:14:05;3.13;;;1.05;;
25155;SDS011;21913;52.456;13.634;2022-12-26T20:19:08;1.75;;;0.90;;
25155;SDS011;21913;52.456;13.634;2022-12-26T20:24:10;2.38;;;1.10;;
25155;SDS011;21913;52.456;13.634;2022-12-26T20:29:12;2.33;;;1.05;;
25155;SDS011;21913;52.456;13.634;2022-12-26T20:34:14;2.53;;;1.10;;
25155;SDS011;21913;52.456;13.634;2022-12-26T20:39:16;2.65;;;1.10;;
25155;SDS011;21913;52.456;13.634;2022-12-26T20:44:19;3.28;;;1.00;;
25155;SDS011;21913;52.456;13.634;2022-12-26T20:49:21;2.95;;;1.10;;
25155;SDS011;21913;52.456;13.634;2022-12-26T20:54:22;3.15;;;1.10;;
25155;SDS011;21913;52.456;13.634;2022-12-26T20:59:24;2.95;;;1.10;;
25155;SDS011;21913;52.456;13.634;2022-12-26T21:04:25;2.08;;;0.90;;
25155;SDS011;21913;52.456;13.634;2022-12-26T21:09:27;2.88;;;0.90;;
25155;SDS011;21913;52.456;13.634;2022-12-26T21:14:28;2.72;;;1.00;;
25155;SDS011;21913;52.456;13.634;2022-12-26T21:19:30;2.05;;;1.02;;
25155;SDS011;21913;52.456;13.634;2022-12-26T21:24:32;2.30;;;0.90;;
25155;SDS011;21913;52.456;13.634;2022-12-26T21:29:34;2.72;;;1.10;;
25155;SDS011;21913;52.456;13.634;2022-12-26T21:34:35;1.95;;;1.20;;
25155;SDS011;21913;52.456;13.634;2022-12-26T21:39:37;2.75;;;1.20;;
25155;SDS011;21913;52.456;13.634;2022-12-26T21:44:39;2.85;;;1.10;;
25155;SDS011;21913;52.456;13.634;2022-12-26T21:49:41;4.90;;;1.20;;
25155;SDS011;21913;52.456;13.634;2022-12-26T21:54:42;3.88;;;1.25;;
25155;SDS011;21913;52.456;13.634;2022-12-26T21:59:48;4.70;;;1.30;;
25155;SDS011;21913;52.456;13.634;2022-12-26T22:04:50;1.77;;;0.90;;
25155;SDS011;21913;52.456;13.634;2022-12-26T22:09:51;1.77;;;0.95;;
25155;SDS011;21913;52.456;13.634;2022-12-26T22:14:53;3.47;;;1.23;;
25155;SDS011;21913;52.456;13.634;2022-12-26T22:19:55;3.10;;;1.23;;
25155;SDS011;21913;52.456;13.634;2022-12-26T22:24:56;3.65;;;1.15;;
25155;SDS011;21913;52.456;13.634;2022-12-26T22:29:58;2.97;;;1.23;;
25155;SDS011;21913;52.456;13.634;2022-12-26T22:34:59;2.83;;;1.15;;
25155;SDS011;21913;52.456;13.634;2022-12-26T22:40:02;3.25;;;1.27;;
25155;SDS011;21913;52.456;13.634;2022-12-26T22:45:04;2.38;;;1.13;;
25155;SDS011;21913;52.456;13.634;2022-12-26T22:50:06;1.83;;;0.90;;
25155;SDS011;21913;52.456;13.634;2022-12-26T22:55:09;2.28;;;1.00;;
25155;SDS011;21913;52.456;13.634;2022-12-26T23:00:12;3.30;;;1.08;;
25155;SDS011;21913;52.456;13.634;2022-12-26T23:05:14;2.95;;;1.23;;
25155;SDS011;21913;52.456;13.634;2022-12-26T23:10:18;2.85;;;1.23;;
25155;SDS011;21913;52.456;13.634;2022-12-26T23:15:22;3.03;;;1.27;;
25155;SDS011;21913;52.456;13.634;2022-12-26T23:20:26;4.07;;;1.30;;
25155;SDS011;21913;52.456;13.634;2022-12-26T23:25:31;2.58;;;1.13;;
25155;SDS011;21913;52.456;13.634;2022-12-26T23:30:32;4.00;;;1.27;;
25155;SDS011;21913;52.456;13.634;2022-12-26T23:35:34;3.47;;;1.45;;
25155;SDS011;21913;52.456;13.634;2022-12-26T23:40:35;3.22;;;1.20;;
25155;SDS011;21913;52.456;13.634;2022-12-26T23:45:40;2.13;;;0.98;;
25155;SDS011;21913;52.456;13.634;2022-12-26T23:50:43;4.38;;;1.25;;
25155;SDS011;21913;52.456;13.634;2022-12-26T23:55:44;2.17;;;1.10;;
